Time;durP1;ratioP1;P1;durP2;ratioP2;P2;SDS_P1;SDS_P2;PMS_P1;PMS_P2;Temp;Humidity;BMP_temperature;BMP_pressure;BME280_temperature;BME280_humidity;BME280_pressure;Samples;Min_cycle;Max_cycle;Signal;HPM_P1;HPM_P2
2024/04/02 00:00:53;;;;;;;12.77;1.52;;;;;;;7.18;100.00;99325.88;5019956;28;22462;-74
2024/04/02 00:03:19;;;;;;;9.95;1.40;;;;;;;7.23;100.00;99333.28;5053038;28;20065;-74
2024/04/02 00:05:44;;;;;;;7.78;1.83;;;;;;;7.19;100.00;99333.06;5018076;28;20033;-74
2024/04/02 00:08:10;;;;;;;9.75;1.30;;;;;;;7.20;100.00;99333.88;5060449;28;20043;-74
2024/04/02 00:10:36;;;;;;;10.00;1.70;;;;;;;7.19;100.00;99332.22;5017566;28;20373;-73
2024/04/02 00:13:02;;;;;;;11.68;1.60;;;;;;;7.17;100.00;99329.78;5021261;28;20036;-74
2024/04/02 00:15:28;;;;;;;8.32;1.45;;;;;;;7.13;100.00;99339.75;5021087;28;20048;-74
2024/04/02 00:17:53;;;;;;;7.68;1.63;;;;;;;7.11;100.00;99340.06;5004674;28;20365;-74
2024/04/02 00:20:19;;;;;;;9.40;1.75;;;;;;;7.09;100.00;99350.59;5019295;28;20040;-74
2024/04/02 00:22:44;;;;;;;11.35;2.55;;;;;;;7.10;100.00;99356.94;5036891;28;20374;-74
2024/04/02 00:25:10;;;;;;;8.82;1.50;;;;;;;7.06;100.00;99356.72;5036254;28;20041;-74
2024/04/02 00:27:35;;;;;;;12.20;1.83;;;;;;;7.06;100.00;99356.72;5018705;28;20044;-74
2024/04/02 00:30:01;;;;;;;11.20;1.40;;;;;;;7.05;100.00;99366.13;5037023;28;20461;-74
2024/04/02 00:32:27;;;;;;;9.40;1.70;;;;;;;7.05;100.00;99359.75;5051149;28;20067;-74
2024/04/02 00:34:53;;;;;;;10.27;1.40;;;;;;;7.02;100.00;99365.88;5045597;28;20056;-74
2024/04/02 00:37:19;;;;;;;9.73;2.30;;;;;;;7.02;100.00;99368.66;5049018;28;20040;-74
2024/04/02 00:39:45;;;;;;;8.05;1.30;;;;;;;7.02;100.00;99371.41;5030745;28;20087;-74
2024/04/02 00:42:10;;;;;;;10.88;1.48;;;;;;;7.01;100.00;99372.53;5022641;28;20037;-74
2024/04/02 00:44:36;;;;;;;11.88;1.00;;;;;;;6.98;100.00;99376.72;5013936;28;20428;-74
2024/04/02 00:47:02;;;;;;;12.10;1.90;;;;;;;6.96;100.00;99372.59;5030474;28;20828;-74
2024/04/02 00:49:28;;;;;;;13.15;1.73;;;;;;;6.94;100.00;99370.97;5014890;28;20048;-74
2024/04/02 00:51:53;;;;;;;8.85;1.38;;;;;;;6.94;100.00;99370.97;5073627;28;20047;-74
2024/04/02 00:54:19;;;;;;;8.50;1.60;;;;;;;6.96;100.00;99373.41;5031229;28;20037;-74
2024/04/02 00:56:44;;;;;;;15.38;2.17;;;;;;;6.92;100.00;99373.19;5023852;28;20048;-74
2024/04/02 00:59:10;;;;;;;12.05;1.50;;;;;;;6.95;100.00;99388.34;5038929;28;20041;-74
2024/04/02 01:01:35;;;;;;;8.23;1.30;;;;;;;6.88;100.00;99380.44;5023616;28;20105;-74
2024/04/02 01:04:01;;;;;;;13.13;2.25;;;;;;;6.84;100.00;99384.09;5042076;28;20045;-74
2024/04/02 01:06:26;;;;;;;12.55;1.58;;;;;;;6.89;100.00;99389.53;5041969;28;20103;-74
2024/04/02 01:08:52;;;;;;;9.07;1.60;;;;;;;6.87;100.00;99395.34;5025342;28;20040;-73
2024/04/02 01:11:17;;;;;;;9.98;1.70;;;;;;;6.85;100.00;99396.75;5032293;28;20393;-74
2024/04/02 01:13:43;;;;;;;10.90;1.80;;;;;;;6.79;100.00;99396.00;5054324;28;20032;-74
2024/04/02 01:16:11;;;;;;;10.25;1.70;;;;;;;6.82;100.00;99395.41;5076232;28;20039;-74
2024/04/02 01:18:37;;;;;;;10.07;1.48;;;;;;;6.82;100.00;99405.63;5022334;28;20043;-74
2024/04/02 01:21:02;;;;;;;10.98;1.40;;;;;;;6.82;100.00;99405.63;5051975;28;20045;-74
2024/04/02 01:23:28;;;;;;;16.02;2.33;;;;;;;6.82;100.00;99414.72;5025230;28;20032;-74
2024/04/02 01:25:53;;;;;;;12.68;2.13;;;;;;;6.82;100.00;99417.50;5041398;28;20036;-74
2024/04/02 01:28:19;;;;;;;10.25;1.38;;;;;;;6.84;100.00;99417.19;5041626;28;20067;-74
2024/04/02 01:30:44;;;;;;;13.07;2.00;;;;;;;6.82;100.00;99420.25;5058031;28;20036;-74
2024/04/02 01:33:10;;;;;;;10.32;1.55;;;;;;;6.80;100.00;99411.47;5041417;28;20043;-74
2024/04/02 01:35:35;;;;;;;12.18;1.85;;;;;;;6.81;100.00;99421.38;5041686;28;20471;-74
2024/04/02 01:38:01;;;;;;;16.40;1.90;;;;;;;6.83;100.00;99430.19;5041557;28;20033;-74
2024/04/02 01:40:26;;;;;;;13.13;2.47;;;;;;;6.80;100.00;99433.53;5041159;28;20556;-74
2024/04/02 01:42:51;;;;;;;11.32;1.80;;;;;;;6.81;100.00;99432.41;5036562;28;20041;-74
2024/04/02 01:45:17;;;;;;;12.23;2.15;;;;;;;6.77;100.00;99442.41;5040549;28;20548;-74
2024/04/02 01:47:43;;;;;;;13.00;2.03;;;;;;;6.75;100.00;99441.88;5043557;28;20043;-74
2024/04/02 01:50:08;;;;;;;14.43;2.20;;;;;;;6.74;100.00;99440.22;5009307;28;20032;-74
2024/04/02 01:52:34;;;;;;;11.65;1.80;;;;;;;6.75;100.00;99447.41;5038207;28;20043;-73
2024/04/02 01:54:59;;;;;;;10.43;1.65;;;;;;;6.74;100.00;99456.78;5058028;28;20037;-74
2024/04/02 01:57:24;;;;;;;13.00;2.05;;;;;;;6.70;100.00;99455.72;5045863;28;20043;-74
2024/04/02 01:59:50;;;;;;;12.60;2.35;;;;;;;6.72;100.00;99457.09;5075968;28;20048;-74
2024/04/02 02:02:15;;;;;;;13.02;2.05;;;;;;;6.74;100.00;99464.25;5040891;28;20033;-74
2024/04/02 02:04:41;;;;;;;15.38;2.75;;;;;;;6.77;100.00;99474.69;5035859;28;20037;-74
2024/04/02 02:07:06;;;;;;;12.02;1.80;;;;;;;6.74;100.00;99473.31;5041200;28;20507;-74
2024/04/02 02:09:32;;;;;;;17.48;2.25;;;;;;;6.71;100.00;99472.00;5041146;28;20029;-74
2024/04/02 02:11:57;;;;;;;15.90;2.28;;;;;;;6.70;100.00;99472.28;5025541;28;20040;-74
2024/04/02 02:14:23;;;;;;;9.68;1.85;;;;;;;6.71;100.00;99457.38;5012496;28;20175;-74
2024/04/02 02:16:49;;;;;;;12.50;2.40;;;;;;;6.72;100.00;99468.13;5044520;28;20040;-74
2024/04/02 02:19:14;;;;;;;11.18;2.08;;;;;;;6.67;100.00;99464.59;5045150;28;20033;-74
2024/04/02 02:21:40;;;;;;;14.90;2.50;;;;;;;6.66;100.00;99463.78;5045068;28;20063;-74
2024/04/02 02:24:06;;;;;;;19.58;2.70;;;;;;;6.68;100.00;99469.00;5009773;28;20044;-74
2024/04/02 02:26:32;;;;;;;14.27;3.15;;;;;;;6.67;100.00;99472.88;5043632;28;20517;-74
2024/04/02 02:28:58;;;;;;;11.68;2.25;;;;;;;6.65;100.00;99472.34;5041992;28;20029;-74
2024/04/02 02:31:23;;;;;;;19.95;3.17;;;;;;;6.69;100.00;99473.41;5043231;28;20054;-74
2024/04/02 02:33:49;;;;;;;19.00;2.65;;;;;;;6.66;100.00;99477.59;5044824;28;20032;-74
2024/04/02 02:36:14;;;;;;;14.32;2.33;;;;;;;6.66;100.00;99474.81;5044920;28;20041;-74
2024/04/02 02:38:40;;;;;;;17.52;3.22;;;;;;;6.66;100.00;99485.03;5044749;28;20036;-74
2024/04/02 02:41:05;;;;;;;19.33;2.85;;;;;;;6.66;100.00;99491.38;5022101;28;20037;-74
2024/04/02 02:43:31;;;;;;;17.40;2.70;;;;;;;6.61;100.00;99491.44;5028031;28;20523;-74
2024/04/02 02:45:56;;;;;;;16.65;3.22;;;;;;;6.63;100.00;99488.34;5029170;28;20036;-74
2024/04/02 02:48:22;;;;;;;18.65;3.00;;;;;;;6.65;100.00;99497.19;5034986;28;20041;-74
2024/04/02 02:50:47;;;;;;;16.35;3.22;;;;;;;6.61;100.00;99502.47;5045214;28;20033;-74
2024/04/02 02:53:13;;;;;;;23.20;3.40;;;;;;;6.58;100.00;99499.47;5028057;28;20063;-74
2024/04/02 02:55:39;;;;;;;18.08;2.50;;;;;;;6.60;100.00;99503.59;5027459;28;20127;-74
2024/04/02 02:58:04;;;;;;;20.42;2.67;;;;;;;6.59;100.00;99504.69;5048130;28;20046;-74
2024/04/02 03:00:30;;;;;;;16.77;3.10;;;;;;;6.59;100.00;99507.44;5037713;28;20041;-73
2024/04/02 03:02:55;;;;;;;14.32;2.50;;;;;;;6.61;100.00;99509.91;5054310;28;20044;-74
2024/04/02 03:05:21;;;;;;;24.30;3.38;;;;;;;6.60;100.00;99514.63;5052551;28;20069;-74
2024/04/02 03:07:47;;;;;;;17.08;3.15;;;;;;;6.59;100.00;99514.91;5027654;28;20043;-73
2024/04/02 03:10:12;;;;;;;18.05;3.20;;;;;;;6.59;100.00;99520.41;5044281;28;20067;-74
2024/04/02 03:12:37;;;;;;;19.90;3.10;;;;;;;6.54;100.00;99528.75;5060792;28;20032;-74
2024/04/02 03:15:04;;;;;;;20.25;3.67;;;;;;;6.56;100.00;99530.09;5059778;28;20028;-74
2024/04/02 03:17:29;;;;;;;14.93;2.90;;;;;;;6.54;100.00;99529.56;5011421;28;20040;-74
2024/04/02 03:19:55;;;;;;;20.35;3.63;;;;;;;6.51;100.00;99526.56;5027426;28;20032;-74
2024/04/02 03:22:21;;;;;;;14.63;3.15;;;;;;;6.50;100.00;99531.28;5024521;28;20420;-74
2024/04/02 03:24:46;;;;;;;18.30;3.53;;;;;;;6.49;100.00;99519.41;5024605;28;20032;-74
2024/04/02 03:27:12;;;;;;;20.52;3.08;;;;;;;6.51;100.00;99527.38;5027418;28;20049;-74
2024/04/02 03:29:38;;;;;;;16.55;2.90;;;;;;;6.47;100.00;99532.66;5042472;28;20514;-74
2024/04/02 03:32:04;;;;;;;18.85;3.53;;;;;;;6.52;100.00;99539.25;5042300;28;20032;-74
2024/04/02 03:34:29;;;;;;;17.02;3.20;;;;;;;6.48;100.00;99534.31;5026440;28;20113;-74
2024/04/02 03:36:55;;;;;;;20.20;3.65;;;;;;;6.49;100.00;99538.72;5042953;28;20041;-74
2024/04/02 03:39:21;;;;;;;22.55;3.55;;;;;;;6.52;100.00;99542.00;5024753;28;20033;-74
2024/04/02 03:41:47;;;;;;;18.00;3.08;;;;;;;6.52;100.00;99540.09;5043348;28;20033;-73
2024/04/02 03:44:12;;;;;;;25.20;3.85;;;;;;;6.52;100.00;99539.25;5021006;28;20040;-74
2024/04/02 03:46:38;;;;;;;13.43;3.13;;;;;;;6.54;100.00;99548.06;5027278;28;20033;-74
2024/04/02 03:49:03;;;;;;;16.88;3.22;;;;;;;6.57;100.00;99544.72;5056559;28;20036;-74
2024/04/02 03:51:29;;;;;;;14.43;3.45;;;;;;;6.57;100.00;99551.03;5026957;28;20032;-74
2024/04/02 03:53:55;;;;;;;14.95;3.08;;;;;;;6.55;100.00;99553.28;5044225;28;20422;-74
2024/04/02 03:56:21;;;;;;;20.35;3.35;;;;;;;6.55;100.00;99552.47;5026762;28;20029;-74
2024/04/02 03:58:46;;;;;;;19.35;2.78;;;;;;;6.52;100.00;99551.13;5040829;28;20503;-74
2024/04/02 04:01:12;;;;;;;26.40;3.03;;;;;;;6.53;100.00;99561.03;5026295;28;20044;-75
2024/04/02 04:03:37;;;;;;;22.55;3.25;;;;;;;6.53;100.00;99557.44;5042765;28;20052;-74
2024/04/02 04:06:04;;;;;;;14.45;3.20;;;;;;;6.52;100.00;99572.34;5043335;28;20107;-74
2024/04/02 04:08:31;;;;;;;19.92;3.60;;;;;;;6.56;100.00;99568.72;5043132;28;20032;-74
2024/04/02 04:10:56;;;;;;;23.75;3.60;;;;;;;6.54;100.00;99567.38;5026431;28;20047;-74
2024/04/02 04:13:22;;;;;;;20.42;3.40;;;;;;;6.53;100.00;99571.25;5026196;28;20672;-74
2024/04/02 04:15:58;;;;;;;13.95;2.90;;;;;;;6.52;100.00;99575.94;5026646;28;20114;-74
2024/04/02 04:18:24;;;;;;;16.63;3.42;;;;;;;6.53;100.00;99587.78;5025970;28;20047;-74
2024/04/02 04:21:02;;;;;;;15.68;3.67;;;;;;;6.54;100.00;99583.91;5026095;28;20572;-74
2024/04/02 04:23:28;;;;;;;20.77;3.20;;;;;;;6.52;100.00;99588.88;5043848;28;20056;-74
2024/04/02 04:26:05;;;;;;;11.55;3.05;;;;;;;6.44;100.00;99599.44;5026075;28;20075;-74
2024/04/02 04:28:30;;;;;;;13.32;3.35;;;;;;;6.42;100.00;99587.06;5011743;28;20032;-74
2024/04/02 04:31:00;;;;;;;16.65;3.67;;;;;;;6.44;100.00;99585.66;5008934;28;20051;-74
2024/04/02 04:33:25;;;;;;;12.40;3.13;;;;;;;6.42;100.00;99590.63;5058969;28;20063;-73
2024/04/02 04:35:51;;;;;;;23.52;6.90;;;;;;;6.40;100.00;99590.09;5058051;28;20484;-74
2024/04/02 04:38:18;;;;;;;25.55;5.57;;;;;;;6.41;100.00;99594.50;5041992;28;20063;-74
2024/04/02 04:40:43;;;;;;;20.30;5.50;;;;;;;6.36;100.00;99597.31;5024910;28;20048;-74
2024/04/02 04:43:10;;;;;;;27.92;5.82;;;;;;;6.31;100.00;99602.03;5025767;28;20032;-74
2024/04/02 04:45:35;;;;;;;21.30;4.97;;;;;;;6.33;100.00;99605.34;5024548;28;20033;-74
2024/04/02 04:48:05;;;;;;;16.40;4.85;;;;;;;6.27;100.00;99610.06;5048464;28;20545;-74
2024/04/02 04:50:30;;;;;;;15.82;4.68;;;;;;;6.28;100.00;99610.91;5009523;28;20028;-74
2024/04/02 04:52:56;;;;;;;19.92;4.75;;;;;;;6.28;100.00;99613.66;5026173;28;20040;-74
2024/04/02 04:55:21;;;;;;;17.02;4.05;;;;;;;6.22;100.00;99616.44;5058111;28;20519;-74
2024/04/02 04:57:47;;;;;;;16.52;3.97;;;;;;;6.24;100.00;99618.91;5054733;28;20044;-74
2024/04/02 05:00:12;;;;;;;15.55;4.38;;;;;;;6.22;100.00;99618.38;5074535;28;20037;-74
2024/04/02 05:02:38;;;;;;;22.27;4.35;;;;;;;6.16;100.00;99617.59;5039607;28;20467;-74
2024/04/02 05:05:05;;;;;;;21.35;5.30;;;;;;;6.14;100.00;99610.72;5030014;28;20062;-74
2024/04/02 05:07:31;;;;;;;15.05;4.85;;;;;;;6.10;100.00;99615.16;5025179;28;20042;-74
2024/04/02 05:09:56;;;;;;;17.55;4.47;;;;;;;6.08;100.00;99622.91;5040496;28;20032;-74
2024/04/02 05:12:22;;;;;;;22.30;4.93;;;;;;;6.07;100.00;99615.72;5041218;28;20040;-74
2024/04/02 05:14:47;;;;;;;17.95;4.10;;;;;;;6.06;100.00;99614.09;5074708;28;20066;-74
2024/04/02 05:17:13;;;;;;;20.88;4.80;;;;;;;6.00;100.00;99618.81;5008578;28;20089;-74
2024/04/02 05:19:38;;;;;;;17.95;3.60;;;;;;;5.96;100.00;99623.22;5040185;28;20037;-74
2024/04/02 05:22:06;;;;;;;18.40;3.65;;;;;;;5.99;100.00;99620.75;5057914;28;20032;-74
2024/04/02 05:24:32;;;;;;;13.52;3.58;;;;;;;5.99;100.00;99620.75;5057557;28;20081;-74
2024/04/02 05:26:59;;;;;;;19.48;4.78;;;;;;;5.95;100.00;99618.84;5024718;28;20485;-74
2024/04/02 05:29:25;;;;;;;17.75;4.35;;;;;;;5.94;100.00;99618.00;5040782;28;20095;-74
2024/04/02 05:31:50;;;;;;;23.25;4.60;;;;;;;5.94;100.00;99626.28;5073172;28;20448;-74
2024/04/02 05:34:15;;;;;;;15.82;4.05;;;;;;;5.94;100.00;99623.53;5039969;28;20040;-74
2024/04/02 05:36:42;;;;;;;20.00;4.53;;;;;;;5.92;100.00;99624.88;5041739;28;20036;-74
2024/04/02 05:39:07;;;;;;;17.77;3.90;;;;;;;5.86;100.00;99615.81;5041231;28;20040;-74
2024/04/02 05:41:33;;;;;;;22.45;3.63;;;;;;;5.89;100.00;99625.47;5041379;28;20098;-74
2024/04/02 05:43:58;;;;;;;18.08;4.15;;;;;;;5.86;100.00;99624.09;5040760;28;20033;-74
2024/04/02 05:46:24;;;;;;;15.88;3.60;;;;;;;5.86;100.00;99632.38;5080786;28;20597;-74
2024/04/02 05:48:49;;;;;;;19.88;3.80;;;;;;;5.81;100.00;99633.19;5028600;28;20033;-73
2024/04/02 05:51:15;;;;;;;15.70;3.55;;;;;;;5.80;100.00;99637.06;5041614;28;20028;-74
2024/04/02 05:53:43;;;;;;;21.92;4.18;;;;;;;5.86;100.00;99637.88;5038027;28;20046;-74
2024/04/02 05:56:08;;;;;;;23.08;3.70;;;;;;;5.81;100.00;99652.50;5039294;28;20036;-74
2024/04/02 05:58:33;;;;;;;18.58;3.72;;;;;;;5.85;100.00;99651.91;5044637;28;20036;-74
2024/04/02 06:01:03;;;;;;;19.80;4.20;;;;;;;5.78;100.00;99641.22;5021506;28;20373;-74
2024/04/02 06:03:28;;;;;;;25.10;4.55;;;;;;;5.81;100.00;99651.66;5041174;28;20057;-74
2024/04/02 06:05:54;;;;;;;18.48;3.92;;;;;;;5.79;100.00;99649.22;5008303;28;20404;-74
2024/04/02 06:08:20;;;;;;;22.05;4.28;;;;;;;5.88;100.00;99641.19;5023914;28;20032;-74
2024/04/02 06:10:45;;;;;;;18.40;3.80;;;;;;;5.83;100.00;99644.78;5040269;28;20432;-74
2024/04/02 06:13:11;;;;;;;14.40;3.88;;;;;;;5.86;100.00;99640.63;5022742;28;20040;-74
2024/04/02 06:15:36;;;;;;;17.63;3.60;;;;;;;5.95;100.00;99655.47;5056612;28;20696;-72
2024/04/02 06:18:02;;;;;;;15.70;3.92;;;;;;;5.95;100.00;99651.91;5073095;28;20052;-72
2024/04/02 06:20:27;;;;;;;19.13;4.35;;;;;;;6.00;100.00;99654.63;5056603;28;20045;-72
2024/04/02 06:22:53;;;;;;;19.98;3.88;;;;;;;6.08;100.00;99667.00;5041089;28;20037;-72
2024/04/02 06:25:18;;;;;;;23.20;4.43;;;;;;;6.11;100.00;99663.69;5057726;28;20040;-72
2024/04/02 06:27:44;;;;;;;21.63;4.10;;;;;;;6.21;100.00;99660.84;5023343;28;20040;-69
2024/04/02 06:30:09;;;;;;;21.60;3.95;;;;;;;6.27;100.00;99668.00;5039941;28;20036;-73
2024/04/02 06:32:35;;;;;;;24.38;4.07;;;;;;;6.33;100.00;99672.34;5036988;28;20044;-73
2024/04/02 06:35:00;;;;;;;20.45;4.18;;;;;;;6.42;100.00;99681.66;5040640;28;20037;-74
2024/04/02 06:37:26;;;;;;;15.68;3.38;;;;;;;6.53;100.00;99678.84;5040224;28;20062;-74
2024/04/02 06:39:53;;;;;;;21.38;3.72;;;;;;;6.61;100.00;99681.78;5039499;28;20040;-73
2024/04/02 06:42:18;;;;;;;20.83;3.60;;;;;;;6.71;100.00;99686.41;5040923;28;20063;-74
2024/04/02 06:44:44;;;;;;;21.67;3.53;;;;;;;6.82;100.00;99687.13;5040951;28;20536;-74
2024/04/02 06:47:09;;;;;;;22.40;3.40;;;;;;;6.94;100.00;99684.84;5049686;28;20051;-73
2024/04/02 06:49:35;;;;;;;24.05;3.88;;;;;;;7.06;100.00;99685.25;5009452;28;20041;-74
2024/04/02 06:52:00;;;;;;;20.85;3.30;;;;;;;7.18;100.00;99687.63;5019984;28;20040;-73
2024/04/02 06:54:25;;;;;;;20.70;3.33;;;;;;;7.33;100.00;99692.19;5008055;28;20037;-74
2024/04/02 06:56:51;;;;;;;24.17;3.65;;;;;;;7.47;100.00;99692.31;5029232;28;20036;-73
2024/04/02 06:59:16;;;;;;;20.38;3.05;;;;;;;7.60;100.00;99691.59;5076033;28;20035;-74
2024/04/02 07:01:42;;;;;;;22.08;3.15;;;;;;;7.73;100.00;99696.41;5040160;28;20036;-74
2024/04/02 07:04:07;;;;;;;19.95;3.00;;;;;;;7.82;100.00;99691.88;5027354;28;20445;-74
2024/04/02 07:06:33;;;;;;;24.40;3.60;;;;;;;7.91;100.00;99697.59;5038174;28;20041;-74
2024/04/02 07:08:59;;;;;;;20.00;3.65;;;;;;;8.01;100.00;99697.44;5041731;28;20082;-73
2024/04/02 07:11:25;;;;;;;17.17;3.20;;;;;;;8.11;100.00;99702.03;5028387;28;20040;-74
2024/04/02 07:13:50;;;;;;;20.38;3.05;;;;;;;8.20;100.00;99702.19;5044013;28;20036;-74
2024/04/02 07:16:16;;;;;;;18.35;3.30;;;;;;;8.27;100.00;99700.69;5057050;28;20040;-74
2024/04/02 07:18:42;;;;;;;16.58;3.10;;;;;;;8.38;100.00;99700.53;5027936;28;20040;-74
2024/04/02 07:21:08;;;;;;;14.77;3.03;;;;;;;8.48;100.00;99704.00;5025206;28;20044;-74
2024/04/02 07:23:35;;;;;;;24.40;3.83;;;;;;;8.65;100.00;99706.22;5044403;28;20045;-74
2024/04/02 07:26:01;;;;;;;19.50;2.78;;;;;;;8.77;100.00;99710.47;5035854;28;20033;-74
2024/04/02 07:28:27;;;;;;;16.40;2.90;;;;;;;8.92;100.00;99721.31;5043983;28;20040;-74
2024/04/02 07:30:53;;;;;;;18.45;2.83;;;;;;;9.04;100.00;99718.88;5035462;28;20523;-74
2024/04/02 07:33:19;;;;;;;18.55;3.63;;;;;;;9.20;100.00;99710.31;5047987;28;20044;-74
2024/04/02 07:35:44;;;;;;;20.95;2.97;;;;;;;9.37;100.00;99710.56;5032708;28;20045;-74
2024/04/02 07:38:11;;;;;;;21.88;2.88;;;;;;;9.48;100.00;99719.50;5019681;28;20033;-74
2024/04/02 07:40:36;;;;;;;22.92;3.70;;;;;;;9.66;100.00;99718.59;5073184;28;20098;-74
2024/04/02 07:43:03;;;;;;;18.15;3.53;;;;;;;9.83;100.00;99724.34;5060258;28;20037;-74
2024/04/02 07:45:28;;;;;;;25.63;2.88;;;;;;;10.00;100.00;99726.50;5026684;28;20033;-73
2024/04/02 07:47:54;;;;;;;16.75;3.10;;;;;;;10.17;100.00;99730.56;5060125;28;20067;-74
2024/04/02 07:50:20;;;;;;;11.73;3.15;;;;;;;10.35;100.00;99729.66;5021496;28;20037;-74
2024/04/02 07:52:45;;;;;;;17.88;3.03;;;;;;;10.48;100.00;99734.38;5027611;28;20724;-74
2024/04/02 07:55:11;;;;;;;12.65;2.60;;;;;;;10.63;100.00;99738.75;5043979;28;20044;-74
2024/04/02 07:57:37;;;;;;;19.45;2.65;;;;;;;10.74;100.00;99740.13;5044533;28;20037;-73
2024/04/02 08:00:03;;;;;;;16.27;2.85;;;;;;;10.83;100.00;99742.97;5020395;28;20500;-74
2024/04/02 08:02:29;;;;;;;18.23;2.63;;;;;;;10.89;100.00;99747.31;5059302;28;20040;-74
2024/04/02 08:04:55;;;;;;;17.90;2.63;;;;;;;10.98;100.00;99752.09;5043076;28;20087;-73
2024/04/02 08:07:20;;;;;;;15.85;2.67;;;;;;;11.03;100.00;99755.59;5043445;28;20040;-74
2024/04/02 08:09:46;;;;;;;13.45;2.63;;;;;;;11.09;100.00;99750.72;5026402;28;20039;-74
2024/04/02 08:12:14;;;;;;;12.65;2.47;;;;;;;11.12;100.00;99744.53;5010167;28;20120;-74
2024/04/02 08:14:40;;;;;;;14.90;2.47;;;;;;;11.17;100.00;99750.78;5010667;28;20028;-74
2024/04/02 08:17:05;;;;;;;13.57;2.72;;;;;;;11.21;100.00;99736.25;5023101;28;20594;-74
2024/04/02 08:19:31;;;;;;;12.43;2.22;;;;;;;11.23;100.00;99748.69;5025575;28;20036;-74
2024/04/02 08:21:57;;;;;;;14.15;1.95;;;;;;;11.25;100.00;99740.03;5042934;28;20041;-74
2024/04/02 08:24:24;;;;;;;11.23;1.70;;;;;;;11.30;100.00;99749.03;5023726;28;20432;-74
2024/04/02 08:26:50;;;;;;;14.63;2.42;;;;;;;11.35;100.00;99740.59;5042378;28;20166;-74
2024/04/02 08:29:15;;;;;;;18.48;2.80;;;;;;;11.43;100.00;99752.09;5024553;28;20528;-74
2024/04/02 08:31:41;;;;;;;14.70;2.50;;;;;;;11.49;100.00;99748.03;5058997;28;20029;-74
2024/04/02 08:34:06;;;;;;;12.48;2.10;;;;;;;11.53;100.00;99746.22;5042217;28;20488;-74
2024/04/02 08:36:32;;;;;;;18.73;2.75;;;;;;;11.57;100.00;99750.03;5026081;28;20068;-74
2024/04/02 08:38:57;;;;;;;14.98;2.00;;;;;;;11.65;100.00;99754.00;5042233;28;20037;-74
2024/04/02 08:41:25;;;;;;;22.10;3.15;;;;;;;11.72;100.00;99748.78;5077658;28;20041;-74
2024/04/02 08:43:51;;;;;;;13.02;2.10;;;;;;;11.77;100.00;99741.13;5034472;28;20040;-74
2024/04/02 08:46:17;;;;;;;13.80;1.92;;;;;;;11.81;100.00;99752.41;5046331;28;20039;-74
2024/04/02 08:48:46;;;;;;;14.38;2.35;;;;;;;11.85;100.00;99745.94;5047801;28;20496;-74
2024/04/02 08:51:12;;;;;;;9.75;2.63;;;;;;;11.94;100.00;99747.94;5027168;28;20123;-74
2024/04/02 08:53:37;;;;;;;14.57;2.28;;;;;;;11.93;100.00;99757.44;5036861;28;20047;-74
2024/04/02 08:56:03;;;;;;;13.35;2.30;;;;;;;11.99;100.00;99759.72;5042344;28;20070;-74
2024/04/02 08:58:29;;;;;;;12.80;2.15;;;;;;;11.98;100.00;99765.59;5014645;28;20476;-74
2024/04/02 09:00:54;;;;;;;14.55;2.35;;;;;;;11.98;100.00;99762.81;5008821;28;20036;-74
2024/04/02 09:03:20;;;;;;;9.95;1.80;;;;;;;11.95;100.00;99766.25;5041730;28;20060;-74
2024/04/02 09:05:46;;;;;;;15.60;2.10;;;;;;;11.94;100.00;99768.22;5025837;28;20036;-74
2024/04/02 09:08:13;;;;;;;14.68;2.38;;;;;;;11.91;100.00;99763.31;5024902;28;20119;-74
2024/04/02 09:10:38;;;;;;;8.77;2.13;;;;;;;11.89;100.00;99762.78;5019044;28;20404;-74
2024/04/02 09:13:07;;;;;;;14.10;2.08;;;;;;;11.84;100.00;99758.19;5057940;28;20036;-74
2024/04/02 09:15:33;;;;;;;9.50;2.22;;;;;;;11.79;100.00;99763.06;5041696;28;20036;-74
2024/04/02 09:17:58;;;;;;;12.82;2.08;;;;;;;11.74;100.00;99772.38;5009280;28;20111;-74
2024/04/02 09:20:24;;;;;;;11.25;2.25;;;;;;;11.69;100.00;99763.34;5025484;28;20044;-74
2024/04/02 09:22:49;;;;;;;9.45;1.83;;;;;;;11.66;100.00;99766.75;5024567;28;20082;-74
2024/04/02 09:25:16;;;;;;;8.88;1.73;;;;;;;11.60;100.00;99763.28;5042023;28;20506;-74
2024/04/02 09:27:42;;;;;;;11.60;2.58;;;;;;;11.59;100.00;99762.47;5008625;28;20036;-74
2024/04/02 09:30:08;;;;;;;13.73;2.75;;;;;;;11.58;100.00;99768.34;5058467;28;20045;-74
2024/04/02 09:32:36;;;;;;;11.45;2.30;;;;;;;11.58;100.00;99762.78;5028712;28;20120;-74
2024/04/02 09:35:11;;;;;;;14.20;2.60;;;;;;;11.58;100.00;99757.22;5025370;28;20139;-74
2024/04/02 09:37:41;;;;;;;13.52;2.30;;;;;;;11.60;100.00;99750.19;5012317;28;20028;-74
2024/04/02 09:40:06;;;;;;;10.85;2.20;;;;;;;11.63;100.00;99748.75;5025808;28;20041;-74
2024/04/02 09:42:33;;;;;;;11.07;2.20;;;;;;;11.66;100.00;99747.28;5023730;28;20058;-74
2024/04/02 09:44:59;;;;;;;12.00;2.42;;;;;;;11.70;100.00;99743.56;5025307;28;20044;-74
2024/04/02 09:47:24;;;;;;;11.48;2.22;;;;;;;11.74;100.00;99752.06;5045700;28;20040;-74
2024/04/02 09:49:52;;;;;;;12.75;3.05;;;;;;;11.78;100.00;99737.22;5034236;28;20033;-74
2024/04/02 09:52:18;;;;;;;16.42;2.92;;;;;;;11.82;100.00;99729.84;5041406;28;20125;-74
2024/04/02 09:54:43;;;;;;;16.42;2.10;;;;;;;11.90;100.00;99738.59;5041555;28;20037;-74
2024/04/02 09:57:09;;;;;;;15.35;2.22;;;;;;;11.93;100.00;99737.94;5045612;28;20032;-74
2024/04/02 09:59:34;;;;;;;15.40;2.72;;;;;;;11.98;100.00;99735.00;5027423;28;20060;-74
2024/04/02 10:02:00;;;;;;;12.93;2.35;;;;;;;12.02;100.00;99727.66;5037170;28;20037;-74
2024/04/02 10:04:25;;;;;;;14.60;2.47;;;;;;;12.08;100.00;99735.53;5040927;28;20116;-74
2024/04/02 10:06:53;;;;;;;11.82;2.65;;;;;;;12.16;100.00;99733.09;5024693;28;20052;-74
2024/04/02 10:09:19;;;;;;;9.00;1.83;;;;;;;12.19;100.00;99726.88;5041146;28;20123;-74
2024/04/02 10:11:46;;;;;;;10.40;2.50;;;;;;;12.23;100.00;99725.94;5008383;28;20037;-74
2024/04/02 10:14:13;;;;;;;10.10;2.28;;;;;;;12.29;100.00;99730.19;5040966;28;20045;-74
2024/04/02 10:16:42;;;;;;;13.20;2.58;;;;;;;12.33;100.00;99723.97;5045996;28;20504;-74
2024/04/02 10:19:22;;;;;;;15.05;2.53;;;;;;;12.35;100.00;99727.25;5038393;28;20037;-74
2024/04/02 10:21:48;;;;;;;9.30;1.83;;;;;;;12.37;100.00;99730.50;5013785;28;20128;-74
2024/04/02 10:24:18;;;;;;;9.93;2.80;;;;;;;12.34;100.00;99728.38;5023030;28;20095;-74
2024/04/02 10:26:43;;;;;;;12.20;2.28;;;;;;;12.34;100.00;99720.03;5017070;28;20037;-74
2024/04/02 10:29:09;;;;;;;8.55;2.30;;;;;;;12.33;100.00;99723.97;5016291;28;20503;-74
2024/04/02 10:31:38;;;;;;;8.63;1.80;;;;;;;12.30;100.00;99714.31;5035589;28;20059;-76
2024/04/02 10:34:06;;;;;;;11.18;2.78;;;;;;;12.30;100.00;99714.31;5054061;28;20044;-74
2024/04/02 10:36:33;;;;;;;8.93;2.42;;;;;;;12.29;100.00;99712.66;5053464;28;20111;-74
2024/04/02 10:38:58;;;;;;;10.95;2.30;;;;;;;12.25;100.00;99712.47;5025917;28;20037;-74
2024/04/02 10:41:24;;;;;;;10.35;2.45;;;;;;;12.29;100.00;99715.47;5034083;28;20427;-74
2024/04/02 10:43:49;;;;;;;10.77;2.58;;;;;;;12.31;100.00;99707.56;5055856;28;20098;-74
2024/04/02 10:46:15;;;;;;;10.05;2.30;;;;;;;12.42;100.00;99702.50;5022746;28;20041;-74
2024/04/02 10:48:40;;;;;;;10.25;2.38;;;;;;;12.47;100.00;99700.38;5003580;28;20078;-74
2024/04/02 10:51:06;;;;;;;10.52;1.98;;;;;;;12.51;100.00;99712.53;5033422;28;20043;-74
2024/04/02 10:53:32;;;;;;;10.50;1.98;;;;;;;12.52;100.00;99705.81;5017081;28;20040;-74
2024/04/02 10:56:02;;;;;;;13.02;2.17;;;;;;;12.57;100.00;99699.25;5036712;28;20110;-74
2024/04/02 10:58:27;;;;;;;10.15;2.00;;;;;;;12.60;100.00;99720.06;4999299;28;20108;-74
2024/04/02 11:00:53;;;;;;;11.45;2.22;;;;;;;12.60;100.00;99712.53;5005035;28;20520;-74
2024/04/02 11:03:19;;;;;;;11.10;2.30;;;;;;;12.59;100.00;99710.06;5046576;28;20045;-74
2024/04/02 11:05:45;;;;;;;9.82;2.45;;;;;;;12.55;100.00;99701.56;5029630;28;20512;-74
2024/04/02 11:08:12;;;;;;;14.02;2.78;;;;;;;12.54;100.00;99713.84;5020842;28;20037;-74
2024/04/02 11:10:47;;;;;;;16.35;2.85;;;;;;;12.52;100.00;99710.56;5036230;28;20037;-74
2024/04/02 11:13:22;;;;;;;16.73;2.75;;;;;;;12.49;100.00;99703.69;5051208;28;20652;-74
2024/04/02 11:15:48;;;;;;;12.60;2.35;;;;;;;12.45;100.00;99704.66;5058010;28;20488;-74
2024/04/02 11:18:22;;;;;;;15.38;2.42;;;;;;;12.45;100.00;99705.50;5034435;28;20059;-74